This is the latest recevied weather packets stored in our database for station/object OE-11051. If no packets are shown the sender has not sent any weather packets the latest 10 day(s).
| Time | Temp. | Humidity | Pressure | Rain* | Wind** | Luminosity | Snow |
|---|---|---|---|---|---|---|---|
| 1788504080 | 20.56° C | 61% | 1019.9 hPa | 0 mm | - | 122 W/m² | - |
| 1788503707 | 20° C | 63% | 1020 hPa | 0 mm | - | 129 W/m² | - |
| 1788503107 | 19.44° C | 65% | 1020.1 hPa | 0 mm | - | 122 W/m² | - |
| 1788502280 | 19.44° C | 66% | 1020.3 hPa | 0 mm | - | 97 W/m² | - |
| 1788501907 | 18.89° C | 68% | 1020.3 hPa | 0 mm | - | 77 W/m² | - |
| 1788501307 | 18.33° C | 73% | 1020.3 hPa | 0 mm | - | 64 W/m² | - |
| 1788500480 | 17.78° C | 74% | 1020.2 hPa | 0 mm | - | 52 W/m² | - |
| 1788500107 | 17.78° C | 77% | 1020.2 hPa | 0 mm | - | 45 W/m² | - |
| 1788499507 | 17.78° C | 76% | 1020.2 hPa | 0 mm | - | 26 W/m² | - |
| 1788498679 | 17.22° C | 78% | 1020.3 hPa | 0 mm | - | 19 W/m² | - |
| 1788498307 | 17.78° C | 78% | 1020.2 hPa | 0 mm | - | 13 W/m² | - |
| 1788497707 | 17.78° C | 77% | 1020.1 hPa | 0 mm | - | 6 W/m² | - |
| 1788496879 | 17.78° C | 76% | 1020.2 hPa | 0 mm | - | 0 W/m² | - |
| 1788496507 | 17.78° C | 77% | 1020.2 hPa | 0 mm | - | 0 W/m² | - |
| 1788495907 | 17.78° C | 76% | 1020.2 hPa | 0 mm | - | 0 W/m² | - |
| 1788495080 | 18.33° C | 75% | 1020.3 hPa | 0 mm | - | 0 W/m² | - |
| 1788494707 | 17.78° C | 76% | 1020.3 hPa | 0 mm | - | 0 W/m² | - |
| 1788494106 | 18.33° C | 74% | 1020.3 hPa | 0 mm | - | 0 W/m² | - |
| 1788492907 | 18.33° C | 74% | 1020.3 hPa | 0 mm | - | 0 W/m² | - |
| 1788491479 | 18.33° C | 74% | 1020.4 hPa | 0 mm | - | 0 W/m² | - |
| 1788486080 | 17.78° C | 78% | 1020.6 hPa | 0 mm | - | 0 W/m² | - |
| 1788484280 | 17.78° C | 75% | 1020.8 hPa | 0 mm | - | 0 W/m² | - |
| 1788478880 | 17.78° C | 81% | 1021.1 hPa | 0 mm | - | 0 W/m² | - |
| 1788474907 | 19.44° C | 73% | 1021.5 hPa | 0 mm | - | 0 W/m² | - |
| 1788474307 | 19.44° C | 73% | 1021.5 hPa | 0 mm | - | 0 W/m² | - |
* Rain latest hour (hover to see other rain measurements)
** Current wind speed in m/s (hover to see current wind gust speed)